sensor_id;sensor_type;location;lat;lon;timestamp;temperature;humidity
17968;DHT22;9109;48.050;11.696;2022-10-17T03:46:14;12.70;99.90
17968;DHT22;9109;48.050;11.696;2022-10-17T03:49:16;12.50;99.90
17968;DHT22;9109;48.050;11.696;2022-10-17T03:52:18;12.30;99.90
17968;DHT22;9109;48.050;11.696;2022-10-17T03:55:20;12.30;99.90
17968;DHT22;9109;48.050;11.696;2022-10-17T03:58:22;12.40;99.90
17968;DHT22;9109;48.050;11.696;2022-10-17T04:01:25;12.40;99.90
17968;DHT22;9109;48.050;11.696;2022-10-17T04:04:27;12.50;99.90
17968;DHT22;9109;48.050;11.696;2022-10-17T04:07:29;12.60;99.90
17968;DHT22;9109;48.050;11.696;2022-10-17T04:10:31;12.70;99.90
17968;DHT22;9109;48.050;11.696;2022-10-17T04:13:34;12.70;99.90
17968;DHT22;9109;48.050;11.696;2022-10-17T04:16:37;12.70;99.90
17968;DHT22;9109;48.050;11.696;2022-10-17T04:19:39;12.70;99.90
17968;DHT22;9109;48.050;11.696;2022-10-17T04:22:41;12.60;99.90
17968;DHT22;9109;48.050;11.696;2022-10-17T04:25:43;12.60;99.90
17968;DHT22;9109;48.050;11.696;2022-10-17T04:28:45;12.50;99.90
17968;DHT22;9109;48.050;11.696;2022-10-17T04:31:48;12.20;99.90
17968;DHT22;9109;48.050;11.696;2022-10-17T04:34:51;12.10;99.90
17968;DHT22;9109;48.050;11.696;2022-10-17T04:37:56;12.10;99.90
17968;DHT22;9109;48.050;11.696;2022-10-17T04:40:58;12.10;99.90
17968;DHT22;9109;48.050;11.696;2022-10-17T04:44:02;12.30;99.90
17968;DHT22;9109;48.050;11.696;2022-10-17T04:47:07;12.30;99.90
17968;DHT22;9109;48.050;11.696;2022-10-17T04:50:09;12.30;99.90
17968;DHT22;9109;48.050;11.696;2022-10-17T04:53:11;12.40;99.90
17968;DHT22;9109;48.050;11.696;2022-10-17T04:56:14;12.30;99.90
17968;DHT22;9109;48.050;11.696;2022-10-17T04:59:16;12.20;99.90
17968;DHT22;9109;48.050;11.696;2022-10-17T05:02:19;12.10;99.90
17968;DHT22;9109;48.050;11.696;2022-10-17T05:05:21;12.10;99.90
17968;DHT22;9109;48.050;11.696;2022-10-17T05:08:23;12.10;99.90
17968;DHT22;9109;48.050;11.696;2022-10-17T05:11:26;12.10;99.90
17968;DHT22;9109;48.050;11.696;2022-10-17T05:14:29;12.10;99.90
17968;DHT22;9109;48.050;11.696;2022-10-17T05:17:32;12.10;99.90
17968;DHT22;9109;48.050;11.696;2022-10-17T05:20:34;12.10;99.90
17968;DHT22;9109;48.050;11.696;2022-10-17T05:23:35;12.00;99.90
17968;DHT22;9109;48.050;11.696;2022-10-17T05:26:37;11.70;99.90
17968;DHT22;9109;48.050;11.696;2022-10-17T05:29:39;11.70;99.90
17968;DHT22;9109;48.050;11.696;2022-10-17T05:32:42;11.60;99.90
17968;DHT22;9109;48.050;11.696;2022-10-17T05:35:44;11.70;99.90
17968;DHT22;9109;48.050;11.696;2022-10-17T05:38:48;11.80;99.90
17968;DHT22;9109;48.050;11.696;2022-10-17T05:41:50;11.80;99.90
17968;DHT22;9109;48.050;11.696;2022-10-17T05:44:52;11.80;99.90
17968;DHT22;9109;48.050;11.696;2022-10-17T05:47:56;11.80;99.90
17968;DHT22;9109;48.050;11.696;2022-10-17T05:50:58;11.70;99.90
17968;DHT22;9109;48.050;11.696;2022-10-17T05:54:00;11.60;99.90
17968;DHT22;9109;48.050;11.696;2022-10-17T05:57:02;11.50;99.90
17968;DHT22;9109;48.050;11.696;2022-10-17T06:00:05;11.50;99.90
17968;DHT22;9109;48.050;11.696;2022-10-17T06:03:10;11.60;99.90
17968;DHT22;9109;48.050;11.696;2022-10-17T06:06:14;11.50;99.90
17968;DHT22;9109;48.050;11.696;2022-10-17T06:09:16;11.50;99.90
17968;DHT22;9109;48.050;11.696;2022-10-17T06:12:18;11.40;99.90
17968;DHT22;9109;48.050;11.696;2022-10-17T06:15:20;11.30;99.90
17968;DHT22;9109;48.050;11.696;2022-10-17T06:18:23;11.30;99.90
17968;DHT22;9109;48.050;11.696;2022-10-17T06:21:26;11.20;99.90
17968;DHT22;9109;48.050;11.696;2022-10-17T06:24:28;11.30;99.90
17968;DHT22;9109;48.050;11.696;2022-10-17T06:27:30;11.30;99.90
17968;DHT22;9109;48.050;11.696;2022-10-17T06:30:32;11.30;99.90
17968;DHT22;9109;48.050;11.696;2022-10-17T06:33:36;11.30;99.90
17968;DHT22;9109;48.050;11.696;2022-10-17T06:36:38;11.40;99.90
17968;DHT22;9109;48.050;11.696;2022-10-17T06:39:40;11.30;99.90
17968;DHT22;9109;48.050;11.696;2022-10-17T06:42:42;11.30;99.90
17968;DHT22;9109;48.050;11.696;2022-10-17T06:45:45;11.40;99.90
17968;DHT22;9109;48.050;11.696;2022-10-17T06:48:48;11.40;99.90
17968;DHT22;9109;48.050;11.696;2022-10-17T06:51:50;11.40;99.90
17968;DHT22;9109;48.050;11.696;2022-10-17T06:54:52;11.50;99.90
17968;DHT22;9109;48.050;11.696;2022-10-17T06:57:54;11.50;99.90
17968;DHT22;9109;48.050;11.696;2022-10-17T07:00:59;11.50;99.90
17968;DHT22;9109;48.050;11.696;2022-10-17T07:04:03;11.60;99.90
17968;DHT22;9109;48.050;11.696;2022-10-17T07:07:05;11.60;99.90
17968;DHT22;9109;48.050;11.696;2022-10-17T07:10:08;11.70;99.90
17968;DHT22;9109;48.050;11.696;2022-10-17T07:13:09;11.70;99.90
17968;DHT22;9109;48.050;11.696;2022-10-17T07:16:12;11.80;99.90
17968;DHT22;9109;48.050;11.696;2022-10-17T07:19:15;11.90;99.90
17968;DHT22;9109;48.050;11.696;2022-10-17T07:22:17;12.00;99.90
17968;DHT22;9109;48.050;11.696;2022-10-17T07:25:19;12.00;99.90
17968;DHT22;9109;48.050;11.696;2022-10-17T07:28:21;12.00;99.90
17968;DHT22;9109;48.050;11.696;2022-10-17T07:31:23;12.10;99.90
17968;DHT22;9109;48.050;11.696;2022-10-17T07:34:26;12.20;99.90
17968;DHT22;9109;48.050;11.696;2022-10-17T07:37:30;12.30;99.90
17968;DHT22;9109;48.050;11.696;2022-10-17T07:40:32;12.40;99.90
17968;DHT22;9109;48.050;11.696;2022-10-17T07:43:34;12.40;99.90
17968;DHT22;9109;48.050;11.696;2022-10-17T07:46:37;12.60;99.90
17968;DHT22;9109;48.050;11.696;2022-10-17T07:49:40;12.70;99.90
17968;DHT22;9109;48.050;11.696;2022-10-17T07:52:43;12.70;99.90
17968;DHT22;9109;48.050;11.696;2022-10-17T07:55:45;12.90;99.90
17968;DHT22;9109;48.050;11.696;2022-10-17T07:58:47;13.00;99.90
17968;DHT22;9109;48.050;11.696;2022-10-17T08:01:49;13.10;99.90
17968;DHT22;9109;48.050;11.696;2022-10-17T08:04:52;13.20;99.90
17968;DHT22;9109;48.050;11.696;2022-10-17T08:07:54;13.30;99.90
17968;DHT22;9109;48.050;11.696;2022-10-17T08:11:01;13.40;99.90
17968;DHT22;9109;48.050;11.696;2022-10-17T08:14:03;13.50;99.90
17968;DHT22;9109;48.050;11.696;2022-10-17T08:17:05;13.70;99.90
17968;DHT22;9109;48.050;11.696;2022-10-17T08:20:10;13.80;99.90
17968;DHT22;9109;48.050;11.696;2022-10-17T08:23:12;13.90;99.90
17968;DHT22;9109;48.050;11.696;2022-10-17T08:26:14;14.00;99.90
17968;DHT22;9109;48.050;11.696;2022-10-17T08:29:16;14.10;99.90
17968;DHT22;9109;48.050;11.696;2022-10-17T08:32:19;14.20;99.90
17968;DHT22;9109;48.050;11.696;2022-10-17T08:35:22;14.40;99.90
17968;DHT22;9109;48.050;11.696;2022-10-17T08:38:24;14.40;99.90
17968;DHT22;9109;48.050;11.696;2022-10-17T08:41:39;14.60;99.90
17968;DHT22;9109;48.050;11.696;2022-10-17T08:44:50;14.70;99.90
17968;DHT22;9109;48.050;11.696;2022-10-17T08:47:57;14.70;99.90
17968;DHT22;9109;48.050;11.696;2022-10-17T08:51:04;14.90;99.90
17968;DHT22;9109;48.050;11.696;2022-10-17T08:54:15;15.00;99.90
17968;DHT22;9109;48.050;11.696;2022-10-17T08:57:18;15.20;99.90
17968;DHT22;9109;48.050;11.696;2022-10-17T09:00:21;15.30;99.90
17968;DHT22;9109;48.050;11.696;2022-10-17T09:03:36;15.40;99.90
17968;DHT22;9109;48.050;11.696;2022-10-17T09:06:43;15.60;99.90
17968;DHT22;9109;48.050;11.696;2022-10-17T09:09:53;15.80;99.90
17968;DHT22;9109;48.050;11.696;2022-10-17T09:13:06;16.00;99.90
17968;DHT22;9109;48.050;11.696;2022-10-17T09:16:21;16.10;99.90
17968;DHT22;9109;48.050;11.696;2022-10-17T09:19:28;16.20;99.90
17968;DHT22;9109;48.050;11.696;2022-10-17T09:22:37;16.50;99.90
17968;DHT22;9109;48.050;11.696;2022-10-17T09:25:43;16.70;99.90
17968;DHT22;9109;48.050;11.696;2022-10-17T09:28:51;16.80;99.90
17968;DHT22;9109;48.050;11.696;2022-10-17T09:31:58;16.90;99.90
17968;DHT22;9109;48.050;11.696;2022-10-17T09:35:01;17.00;99.90
17968;DHT22;9109;48.050;11.696;2022-10-17T09:38:05;17.10;99.90
17968;DHT22;9109;48.050;11.696;2022-10-17T09:41:15;17.20;99.90
17968;DHT22;9109;48.050;11.696;2022-10-17T09:44:20;17.30;99.90
17968;DHT22;9109;48.050;11.696;2022-10-17T09:47:28;17.50;99.90
17968;DHT22;9109;48.050;11.696;2022-10-17T09:50:32;17.50;99.90
17968;DHT22;9109;48.050;11.696;2022-10-17T09:53:37;17.60;99.90
17968;DHT22;9109;48.050;11.696;2022-10-17T09:56:55;17.70;99.90
17968;DHT22;9109;48.050;11.696;2022-10-17T09:59:59;17.90;99.90
17968;DHT22;9109;48.050;11.696;2022-10-17T10:03:10;18.00;99.90
17968;DHT22;9109;48.050;11.696;2022-10-17T10:06:15;18.10;99.10
17968;DHT22;9109;48.050;11.696;2022-10-17T10:09:24;18.20;99.90
17968;DHT22;9109;48.050;11.696;2022-10-17T10:12:28;18.40;99.90
17968;DHT22;9109;48.050;11.696;2022-10-17T10:15:34;18.30;99.10
17968;DHT22;9109;48.050;11.696;2022-10-17T10:18:37;18.40;99.60
17968;DHT22;9109;48.050;11.696;2022-10-17T10:21:54;18.50;99.10
17968;DHT22;9109;48.050;11.696;2022-10-17T10:25:12;18.50;99.20
17968;DHT22;9109;48.050;11.696;2022-10-17T10:28:16;18.50;99.10
17968;DHT22;9109;48.050;11.696;2022-10-17T10:31:25;18.50;99.10
17968;DHT22;9109;48.050;11.696;2022-10-17T10:34:29;18.60;97.30
17968;DHT22;9109;48.050;11.696;2022-10-17T10:37:36;18.80;99.30
17968;DHT22;9109;48.050;11.696;2022-10-17T10:40:46;18.90;97.10
17968;DHT22;9109;48.050;11.696;2022-10-17T10:43:50;19.00;96.50
17968;DHT22;9109;48.050;11.696;2022-10-17T10:47:15;19.20;98.10
17968;DHT22;9109;48.050;11.696;2022-10-17T10:50:25;19.30;98.00
17968;DHT22;9109;48.050;11.696;2022-10-17T10:53:32;19.40;96.00
17968;DHT22;9109;48.050;11.696;2022-10-17T10:56:40;19.50;97.00
17968;DHT22;9109;48.050;11.696;2022-10-17T10:59:49;19.60;97.00
17968;DHT22;9109;48.050;11.696;2022-10-17T11:02:59;19.70;96.30
17968;DHT22;9109;48.050;11.696;2022-10-17T11:06:05;19.80;95.30
17968;DHT22;9109;48.050;11.696;2022-10-17T11:09:21;19.90;95.20
17968;DHT22;9109;48.050;11.696;2022-10-17T11:12:27;19.90;93.90
17968;DHT22;9109;48.050;11.696;2022-10-17T11:15:35;20.00;94.60
17968;DHT22;9109;48.050;11.696;2022-10-17T11:18:44;20.10;92.70
17968;DHT22;9109;48.050;11.696;2022-10-17T11:21:55;20.20;93.80
17968;DHT22;9109;48.050;11.696;2022-10-17T11:25:04;20.20;93.00
17968;DHT22;9109;48.050;11.696;2022-10-17T11:28:13;20.20;92.30
17968;DHT22;9109;48.050;11.696;2022-10-17T11:31:17;20.40;91.50
17968;DHT22;9109;48.050;11.696;2022-10-17T11:34:22;20.40;92.20
17968;DHT22;9109;48.050;11.696;2022-10-17T11:37:27;20.50;91.40
17968;DHT22;9109;48.050;11.696;2022-10-17T11:40:34;20.50;90.90
17968;DHT22;9109;48.050;11.696;2022-10-17T11:43:44;20.50;91.10
17968;DHT22;9109;48.050;11.696;2022-10-17T11:46:53;20.60;89.90
17968;DHT22;9109;48.050;11.696;2022-10-17T11:49:59;20.60;91.00
17968;DHT22;9109;48.050;11.696;2022-10-17T11:53:08;20.70;90.50
17968;DHT22;9109;48.050;11.696;2022-10-17T11:56:11;20.70;89.80
17968;DHT22;9109;48.050;11.696;2022-10-17T11:59:44;20.90;90.00
17968;DHT22;9109;48.050;11.696;2022-10-17T12:02:56;20.90;90.20
17968;DHT22;9109;48.050;11.696;2022-10-17T12:06:03;20.90;87.80
17968;DHT22;9109;48.050;11.696;2022-10-17T12:09:16;21.00;88.10
17968;DHT22;9109;48.050;11.696;2022-10-17T12:12:27;21.00;90.00
17968;DHT22;9109;48.050;11.696;2022-10-17T12:15:30;21.00;88.90
17968;DHT22;9109;48.050;11.696;2022-10-17T12:18:33;21.10;85.30
17968;DHT22;9109;48.050;11.696;2022-10-17T12:21:53;21.20;83.40
17968;DHT22;9109;48.050;11.696;2022-10-17T12:24:58;21.20;83.80
17968;DHT22;9109;48.050;11.696;2022-10-17T12:28:11;21.20;86.10
17968;DHT22;9109;48.050;11.696;2022-10-17T12:31:23;21.40;80.90
17968;DHT22;9109;48.050;11.696;2022-10-17T12:34:26;21.40;83.00
17968;DHT22;9109;48.050;11.696;2022-10-17T12:41:15;21.50;80.00
17968;DHT22;9109;48.050;11.696;2022-10-17T12:44:35;21.50;80.10
17968;DHT22;9109;48.050;11.696;2022-10-17T12:47:39;21.50;82.50
17968;DHT22;9109;48.050;11.696;2022-10-17T12:51:01;21.60;82.90
17968;DHT22;9109;48.050;11.696;2022-10-17T12:54:10;21.70;81.90
17968;DHT22;9109;48.050;11.696;2022-10-17T12:57:16;21.80;82.10
17968;DHT22;9109;48.050;11.696;2022-10-17T13:00:24;22.00;80.10
17968;DHT22;9109;48.050;11.696;2022-10-17T13:03:31;22.00;82.40
17968;DHT22;9109;48.050;11.696;2022-10-17T13:06:37;22.00;82.40
17968;DHT22;9109;48.050;11.696;2022-10-17T13:09:42;22.00;81.20
17968;DHT22;9109;48.050;11.696;2022-10-17T13:12:45;22.10;81.50
17968;DHT22;9109;48.050;11.696;2022-10-17T13:15:49;22.00;78.20
17968;DHT22;9109;48.050;11.696;2022-10-17T13:18:53;22.00;80.30
17968;DHT22;9109;48.050;11.696;2022-10-17T13:21:56;22.10;79.40
17968;DHT22;9109;48.050;11.696;2022-10-17T13:25:11;22.20;78.30
17968;DHT22;9109;48.050;11.696;2022-10-17T13:28:14;22.10;77.20
17968;DHT22;9109;48.050;11.696;2022-10-17T13:31:27;22.20;75.70
17968;DHT22;9109;48.050;11.696;2022-10-17T13:34:32;22.30;76.70
17968;DHT22;9109;48.050;11.696;2022-10-17T13:37:35;22.20;80.70
17968;DHT22;9109;48.050;11.696;2022-10-17T13:40:39;22.10;78.20
17968;DHT22;9109;48.050;11.696;2022-10-17T13:43:42;22.10;76.70
17968;DHT22;9109;48.050;11.696;2022-10-17T13:46:44;22.10;77.00
17968;DHT22;9109;48.050;11.696;2022-10-17T13:49:48;22.20;77.70
17968;DHT22;9109;48.050;11.696;2022-10-17T13:53:05;22.20;79.10
17968;DHT22;9109;48.050;11.696;2022-10-17T13:56:17;22.20;77.50
17968;DHT22;9109;48.050;11.696;2022-10-17T13:59:22;22.20;77.50
17968;DHT22;9109;48.050;11.696;2022-10-17T14:02:26;22.20;75.20
17968;DHT22;9109;48.050;11.696;2022-10-17T14:05:29;22.30;75.70
17968;DHT22;9109;48.050;11.696;2022-10-17T14:08:33;22.30;75.30
17968;DHT22;9109;48.050;11.696;2022-10-17T14:11:37;22.40;76.10
17968;DHT22;9109;48.050;11.696;2022-10-17T14:14:46;22.40;78.40
17968;DHT22;9109;48.050;11.696;2022-10-17T14:17:55;22.40;77.30
17968;DHT22;9109;48.050;11.696;2022-10-17T14:21:00;22.40;75.40
17968;DHT22;9109;48.050;11.696;2022-10-17T14:24:24;22.40;74.10
17968;DHT22;9109;48.050;11.696;2022-10-17T14:27:30;22.50;74.50
17968;DHT22;9109;48.050;11.696;2022-10-17T14:30:36;22.40;76.00
17968;DHT22;9109;48.050;11.696;2022-10-17T14:33:43;22.40;74.90
17968;DHT22;9109;48.050;11.696;2022-10-17T14:36:50;22.40;75.90
17968;DHT22;9109;48.050;11.696;2022-10-17T14:39:52;22.40;73.80
17968;DHT22;9109;48.050;11.696;2022-10-17T14:42:57;22.40;74.60
17968;DHT22;9109;48.050;11.696;2022-10-17T14:46:00;22.40;73.20
17968;DHT22;9109;48.050;11.696;2022-10-17T14:49:05;22.30;72.40
17968;DHT22;9109;48.050;11.696;2022-10-17T14:52:27;22.30;74.10
17968;DHT22;9109;48.050;11.696;2022-10-17T14:55:31;22.20;73.50
17968;DHT22;9109;48.050;11.696;2022-10-17T14:58:34;22.10;75.00
17968;DHT22;9109;48.050;11.696;2022-10-17T15:01:35;22.00;76.20
17968;DHT22;9109;48.050;11.696;2022-10-17T15:04:37;21.80;76.70
17968;DHT22;9109;48.050;11.696;2022-10-17T15:07:41;21.80;76.50
17968;DHT22;9109;48.050;11.696;2022-10-17T15:10:45;21.70;77.60
17968;DHT22;9109;48.050;11.696;2022-10-17T15:13:47;21.60;78.10
17968;DHT22;9109;48.050;11.696;2022-10-17T15:16:49;21.60;78.90
17968;DHT22;9109;48.050;11.696;2022-10-17T15:19:51;21.50;79.00
17968;DHT22;9109;48.050;11.696;2022-10-17T15:22:54;21.50;79.50
17968;DHT22;9109;48.050;11.696;2022-10-17T15:25:56;21.40;80.60
17968;DHT22;9109;48.050;11.696;2022-10-17T15:28:59;21.30;81.50
17968;DHT22;9109;48.050;11.696;2022-10-17T15:32:00;21.20;81.90
17968;DHT22;9109;48.050;11.696;2022-10-17T15:35:03;21.10;81.70
17968;DHT22;9109;48.050;11.696;2022-10-17T15:38:07;21.00;82.20
17968;DHT22;9109;48.050;11.696;2022-10-17T15:41:10;21.00;83.50
17968;DHT22;9109;48.050;11.696;2022-10-17T15:44:12;20.90;84.50
17968;DHT22;9109;48.050;11.696;2022-10-17T15:47:20;20.70;87.30
17968;DHT22;9109;48.050;11.696;2022-10-17T15:50:23;20.60;89.10
17968;DHT22;9109;48.050;11.696;2022-10-17T15:53:26;20.40;90.90
17968;DHT22;9109;48.050;11.696;2022-10-17T15:56:30;20.30;92.00
17968;DHT22;9109;48.050;11.696;2022-10-17T15:59:35;20.20;93.40
17968;DHT22;9109;48.050;11.696;2022-10-17T16:02:37;20.00;95.20
17968;DHT22;9109;48.050;11.696;2022-10-17T16:05:39;19.70;97.10
17968;DHT22;9109;48.050;11.696;2022-10-17T16:08:42;19.40;98.00
17968;DHT22;9109;48.050;11.696;2022-10-17T16:11:44;19.40;99.10
17968;DHT22;9109;48.050;11.696;2022-10-17T16:14:46;19.20;99.90
17968;DHT22;9109;48.050;11.696;2022-10-17T16:17:48;19.20;99.90
17968;DHT22;9109;48.050;11.696;2022-10-17T16:20:50;19.10;99.90
17968;DHT22;9109;48.050;11.696;2022-10-17T16:23:55;19.00;99.90
17968;DHT22;9109;48.050;11.696;2022-10-17T16:26:57;19.00;99.90
17968;DHT22;9109;48.050;11.696;2022-10-17T16:29:59;18.90;99.90
17968;DHT22;9109;48.050;11.696;2022-10-17T16:33:01;18.80;99.90
17968;DHT22;9109;48.050;11.696;2022-10-17T16:36:03;18.60;99.90
17968;DHT22;9109;48.050;11.696;2022-10-17T16:39:08;18.50;99.90
17968;DHT22;9109;48.050;11.696;2022-10-17T16:42:09;18.30;99.90
17968;DHT22;9109;48.050;11.696;2022-10-17T16:45:17;18.20;99.90
17968;DHT22;9109;48.050;11.696;2022-10-17T16:48:19;18.20;99.90
17968;DHT22;9109;48.050;11.696;2022-10-17T16:51:21;18.10;99.90
17968;DHT22;9109;48.050;11.696;2022-10-17T16:54:25;17.90;99.90
17968;DHT22;9109;48.050;11.696;2022-10-17T16:57:27;17.80;99.90
17968;DHT22;9109;48.050;11.696;2022-10-17T17:00:29;17.70;99.90
17968;DHT22;9109;48.050;11.696;2022-10-17T17:03:34;17.60;99.90
17968;DHT22;9109;48.050;11.696;2022-10-17T17:06:36;17.60;99.90
17968;DHT22;9109;48.050;11.696;2022-10-17T17:09:39;17.50;99.90
17968;DHT22;9109;48.050;11.696;2022-10-17T17:12:41;17.40;99.90
17968;DHT22;9109;48.050;11.696;2022-10-17T17:15:43;17.30;99.90
17968;DHT22;9109;48.050;11.696;2022-10-17T17:18:45;17.20;99.90
17968;DHT22;9109;48.050;11.696;2022-10-17T17:21:48;17.10;99.90
17968;DHT22;9109;48.050;11.696;2022-10-17T17:24:52;17.10;99.90
17968;DHT22;9109;48.050;11.696;2022-10-17T17:27:53;17.00;99.90
17968;DHT22;9109;48.050;11.696;2022-10-17T17:30:55;16.90;99.90
17968;DHT22;9109;48.050;11.696;2022-10-17T17:33:57;16.80;99.90
17968;DHT22;9109;48.050;11.696;2022-10-17T17:36:59;16.60;99.90
17968;DHT22;9109;48.050;11.696;2022-10-17T17:40:03;16.60;99.90
17968;DHT22;9109;48.050;11.696;2022-10-17T17:43:05;16.50;99.90
17968;DHT22;9109;48.050;11.696;2022-10-17T17:46:08;16.50;99.90
17968;DHT22;9109;48.050;11.696;2022-10-17T17:49:10;16.50;99.90
17968;DHT22;9109;48.050;11.696;2022-10-17T17:52:12;16.50;99.90
17968;DHT22;9109;48.050;11.696;2022-10-17T17:55:16;16.40;99.90
17968;DHT22;9109;48.050;11.696;2022-10-17T17:58:17;16.40;99.90
17968;DHT22;9109;48.050;11.696;2022-10-17T18:01:21;16.30;99.90
17968;DHT22;9109;48.050;11.696;2022-10-17T18:04:23;16.30;99.90
17968;DHT22;9109;48.050;11.696;2022-10-17T18:07:25;16.30;99.90
17968;DHT22;9109;48.050;11.696;2022-10-17T18:10:28;16.20;99.90
17968;DHT22;9109;48.050;11.696;2022-10-17T18:13:30;16.20;99.90
17968;DHT22;9109;48.050;11.696;2022-10-17T18:16:33;16.20;99.90
17968;DHT22;9109;48.050;11.696;2022-10-17T18:19:36;16.10;99.90
17968;DHT22;9109;48.050;11.696;2022-10-17T18:22:38;16.00;99.90
17968;DHT22;9109;48.050;11.696;2022-10-17T18:25:41;16.00;99.90
17968;DHT22;9109;48.050;11.696;2022-10-17T18:28:43;15.90;99.90
17968;DHT22;9109;48.050;11.696;2022-10-17T18:31:45;15.80;99.90
17968;DHT22;9109;48.050;11.696;2022-10-17T18:34:47;15.80;99.90
17968;DHT22;9109;48.050;11.696;2022-10-17T18:37:49;15.70;99.90
17968;DHT22;9109;48.050;11.696;2022-10-17T18:41:03;15.60;99.90
17968;DHT22;9109;48.050;11.696;2022-10-17T18:44:05;15.60;99.90
17968;DHT22;9109;48.050;11.696;2022-10-17T18:47:07;15.60;99.90
17968;DHT22;9109;48.050;11.696;2022-10-17T18:50:11;15.60;99.90
17968;DHT22;9109;48.050;11.696;2022-10-17T18:53:12;15.50;99.90
17968;DHT22;9109;48.050;11.696;2022-10-17T18:56:16;15.50;99.90
17968;DHT22;9109;48.050;11.696;2022-10-17T18:59:19;15.50;99.90
17968;DHT22;9109;48.050;11.696;2022-10-17T19:02:21;15.40;99.90
17968;DHT22;9109;48.050;11.696;2022-10-17T19:05:23;15.30;99.90
17968;DHT22;9109;48.050;11.696;2022-10-17T19:08:25;15.30;99.90
17968;DHT22;9109;48.050;11.696;2022-10-17T19:11:30;15.20;99.90
17968;DHT22;9109;48.050;11.696;2022-10-17T19:14:32;15.20;99.90
17968;DHT22;9109;48.050;11.696;2022-10-17T19:17:34;15.20;99.90
17968;DHT22;9109;48.050;11.696;2022-10-17T19:20:35;15.20;99.90
17968;DHT22;9109;48.050;11.696;2022-10-17T19:23:38;15.20;99.90
17968;DHT22;9109;48.050;11.696;2022-10-17T19:26:42;15.20;99.90
17968;DHT22;9109;48.050;11.696;2022-10-17T19:29:44;15.20;99.90
17968;DHT22;9109;48.050;11.696;2022-10-17T19:32:46;15.20;99.90
17968;DHT22;9109;48.050;11.696;2022-10-17T19:35:54;15.10;99.90
17968;DHT22;9109;48.050;11.696;2022-10-17T19:38:56;15.10;99.90
17968;DHT22;9109;48.050;11.696;2022-10-17T19:42:00;15.00;99.90
17968;DHT22;9109;48.050;11.696;2022-10-17T19:45:03;14.90;99.90
17968;DHT22;9109;48.050;11.696;2022-10-17T19:48:05;14.90;99.90
17968;DHT22;9109;48.050;11.696;2022-10-17T19:51:15;14.90;99.90
17968;DHT22;9109;48.050;11.696;2022-10-17T19:54:19;14.90;99.90
17968;DHT22;9109;48.050;11.696;2022-10-17T19:57:26;15.00;99.90
17968;DHT22;9109;48.050;11.696;2022-10-17T20:00:28;15.00;99.90
17968;DHT22;9109;48.050;11.696;2022-10-17T20:03:31;14.90;99.90
17968;DHT22;9109;48.050;11.696;2022-10-17T20:06:36;14.80;99.90
17968;DHT22;9109;48.050;11.696;2022-10-17T20:09:41;14.70;99.90
17968;DHT22;9109;48.050;11.696;2022-10-17T20:12:45;14.70;99.90
17968;DHT22;9109;48.050;11.696;2022-10-17T20:15:54;14.80;99.90
17968;DHT22;9109;48.050;11.696;2022-10-17T20:19:03;14.70;99.90
17968;DHT22;9109;48.050;11.696;2022-10-17T20:22:09;14.70;99.90
17968;DHT22;9109;48.050;11.696;2022-10-17T20:25:12;14.60;99.90
17968;DHT22;9109;48.050;11.696;2022-10-17T20:28:16;14.60;99.90
17968;DHT22;9109;48.050;11.696;2022-10-17T20:31:32;14.60;99.90
17968;DHT22;9109;48.050;11.696;2022-10-17T20:34:50;14.60;99.90
17968;DHT22;9109;48.050;11.696;2022-10-17T20:37:53;14.60;99.90
17968;DHT22;9109;48.050;11.696;2022-10-17T20:40:59;14.60;99.90
17968;DHT22;9109;48.050;11.696;2022-10-17T20:44:03;14.50;99.90
17968;DHT22;9109;48.050;11.696;2022-10-17T20:47:06;14.50;99.90
17968;DHT22;9109;48.050;11.696;2022-10-17T20:50:08;14.40;99.90
17968;DHT22;9109;48.050;11.696;2022-10-17T20:53:11;14.40;99.90
17968;DHT22;9109;48.050;11.696;2022-10-17T20:56:17;14.40;99.90
17968;DHT22;9109;48.050;11.696;2022-10-17T20:59:21;14.40;99.90
17968;DHT22;9109;48.050;11.696;2022-10-17T21:02:23;14.30;99.90
17968;DHT22;9109;48.050;11.696;2022-10-17T21:05:26;14.30;99.90
17968;DHT22;9109;48.050;11.696;2022-10-17T21:08:28;14.30;99.90
17968;DHT22;9109;48.050;11.696;2022-10-17T21:11:30;14.20;99.90
17968;DHT22;9109;48.050;11.696;2022-10-17T21:14:34;14.20;99.90
17968;DHT22;9109;48.050;11.696;2022-10-17T21:17:36;14.20;99.90
17968;DHT22;9109;48.050;11.696;2022-10-17T21:20:38;14.10;99.90
17968;DHT22;9109;48.050;11.696;2022-10-17T21:23:42;14.10;99.90
17968;DHT22;9109;48.050;11.696;2022-10-17T21:26:45;14.00;99.90
17968;DHT22;9109;48.050;11.696;2022-10-17T21:29:50;13.90;99.90
17968;DHT22;9109;48.050;11.696;2022-10-17T21:32:53;13.90;99.90
17968;DHT22;9109;48.050;11.696;2022-10-17T21:35:55;14.00;99.90
17968;DHT22;9109;48.050;11.696;2022-10-17T21:38:57;14.00;99.90
17968;DHT22;9109;48.050;11.696;2022-10-17T21:42:00;14.00;99.90
17968;DHT22;9109;48.050;11.696;2022-10-17T21:45:04;14.00;99.90
17968;DHT22;9109;48.050;11.696;2022-10-17T21:48:06;14.00;99.90
17968;DHT22;9109;48.050;11.696;2022-10-17T21:51:10;14.00;99.90
17968;DHT22;9109;48.050;11.696;2022-10-17T21:54:13;13.90;99.90
17968;DHT22;9109;48.050;11.696;2022-10-17T21:57:16;13.90;99.90
17968;DHT22;9109;48.050;11.696;2022-10-17T22:00:19;13.90;99.90
17968;DHT22;9109;48.050;11.696;2022-10-17T22:03:21;13.80;99.90
17968;DHT22;9109;48.050;11.696;2022-10-17T22:06:25;13.80;99.90
17968;DHT22;9109;48.050;11.696;2022-10-17T22:09:27;13.80;99.90
17968;DHT22;9109;48.050;11.696;2022-10-17T22:12:29;13.80;99.90
17968;DHT22;9109;48.050;11.696;2022-10-17T22:15:33;13.70;99.90
17968;DHT22;9109;48.050;11.696;2022-10-17T22:18:35;13.70;99.90
17968;DHT22;9109;48.050;11.696;2022-10-17T22:21:38;13.70;99.90
17968;DHT22;9109;48.050;11.696;2022-10-17T22:25:22;13.60;99.90
17968;DHT22;9109;48.050;11.696;2022-10-17T22:28:41;13.70;99.90
17968;DHT22;9109;48.050;11.696;2022-10-17T22:31:45;13.60;99.90
17968;DHT22;9109;48.050;11.696;2022-10-17T22:34:47;13.70;99.90
17968;DHT22;9109;48.050;11.696;2022-10-17T22:37:49;13.60;99.90
17968;DHT22;9109;48.050;11.696;2022-10-17T22:40:51;13.60;99.90
17968;DHT22;9109;48.050;11.696;2022-10-17T22:43:53;13.60;99.90
17968;DHT22;9109;48.050;11.696;2022-10-17T22:46:57;13.60;99.90
17968;DHT22;9109;48.050;11.696;2022-10-17T22:49:59;13.60;99.90
17968;DHT22;9109;48.050;11.696;2022-10-17T22:53:01;13.60;99.90
17968;DHT22;9109;48.050;11.696;2022-10-17T22:56:05;13.60;99.90
17968;DHT22;9109;48.050;11.696;2022-10-17T22:59:08;13.60;99.90
